createdAt,value
2022-12-04T00:01:20.406Z,1.21
2022-12-04T00:03:48.508Z,1.23
2022-12-04T00:06:17.762Z,1.23
2022-12-04T00:08:46.231Z,1.24
2022-12-04T00:11:15.065Z,1.21
2022-12-04T00:13:42.779Z,1.18
2022-12-04T00:16:18.339Z,1.15
2022-12-04T00:18:46.657Z,1.13
2022-12-04T00:21:15.734Z,1.14
2022-12-04T00:23:43.949Z,1.15
2022-12-04T00:26:13.468Z,1.17
2022-12-04T00:28:41.974Z,1.20
2022-12-04T00:31:14.939Z,1.17
2022-12-04T00:33:42.844Z,1.10
2022-12-04T00:36:12.162Z,1.07
2022-12-04T00:38:40.756Z,1.06
2022-12-04T00:41:10.115Z,1.07
2022-12-04T00:43:37.779Z,1.10
2022-12-04T00:46:06.070Z,1.14
2022-12-04T00:48:33.840Z,1.18
2022-12-04T00:51:05.261Z,1.21
2022-12-04T00:53:33.312Z,1.22
2022-12-04T00:56:08.576Z,1.23
2022-12-04T00:58:36.843Z,1.24
2022-12-04T01:01:07.563Z,1.26
2022-12-04T01:03:36.051Z,1.30
2022-12-04T01:06:04.404Z,1.33
2022-12-04T01:08:32.453Z,1.37
2022-12-04T01:11:00.444Z,1.39
2022-12-04T01:13:28.171Z,1.40
2022-12-04T01:15:55.944Z,1.38
2022-12-04T01:18:23.605Z,1.37
2022-12-04T01:20:52.215Z,1.37
2022-12-04T01:23:19.982Z,1.39
2022-12-04T01:25:54.792Z,1.39
2022-12-04T01:28:22.908Z,1.39
2022-12-04T01:31:00.888Z,1.36
2022-12-04T01:33:29.200Z,1.29
2022-12-04T01:35:57.920Z,1.19
2022-12-04T01:38:26.994Z,1.12
2022-12-04T01:40:54.783Z,1.10
2022-12-04T01:43:22.923Z,1.09
2022-12-04T01:45:55.176Z,1.09
2022-12-04T01:48:26.831Z,1.05
2022-12-04T01:50:58.760Z,1.02
2022-12-04T01:53:26.728Z,0.98
2022-12-04T01:55:55.847Z,0.93
2022-12-04T01:58:27.684Z,0.91
2022-12-04T02:01:00.783Z,0.95
2022-12-04T02:03:32.133Z,0.98
2022-12-04T02:06:00.021Z,1.00
2022-12-04T02:08:28.727Z,1.00
2022-12-04T02:11:11.640Z,1.01
2022-12-04T02:13:47.917Z,1.02
2022-12-04T02:16:15.675Z,0.99
2022-12-04T02:19:03.710Z,0.94
2022-12-04T02:21:37.482Z,0.91
2022-12-04T02:24:23.435Z,0.91
2022-12-04T02:26:51.223Z,0.85
2022-12-04T02:29:37.421Z,0.84
2022-12-04T02:32:20.237Z,0.84
2022-12-04T02:34:53.796Z,0.81
2022-12-04T02:37:27.293Z,0.79
2022-12-04T02:39:59.685Z,0.77
2022-12-04T02:42:47.716Z,0.75
2022-12-04T02:45:20.268Z,0.74
2022-12-04T02:47:48.015Z,0.73
2022-12-04T02:50:18.098Z,0.74
2022-12-04T02:52:52.398Z,0.77
2022-12-04T02:55:23.336Z,0.80
2022-12-04T02:57:53.875Z,0.82
2022-12-04T03:00:22.409Z,0.86
2022-12-04T03:02:53.536Z,0.90
2022-12-04T03:05:34.267Z,0.92
2022-12-04T03:08:06.295Z,0.93
2022-12-04T03:10:38.561Z,0.96
2022-12-04T03:13:16.125Z,0.97
2022-12-04T03:15:47.811Z,0.98
2022-12-04T03:18:30.773Z,0.98
2022-12-04T03:21:03.209Z,1.02
2022-12-04T03:23:37.470Z,1.07
2022-12-04T03:26:13.864Z,1.10
2022-12-04T03:28:47.385Z,1.14
2022-12-04T03:31:17.673Z,1.18
2022-12-04T03:33:47.718Z,1.19
2022-12-04T03:36:22.396Z,1.20
2022-12-04T03:38:50.095Z,1.20
2022-12-04T03:41:25.541Z,1.22
2022-12-04T03:44:13.594Z,1.22
2022-12-04T03:46:46.082Z,1.23
2022-12-04T03:49:14.007Z,1.22
2022-12-04T03:51:45.250Z,1.24
2022-12-04T03:54:12.877Z,1.28
2022-12-04T03:56:43.892Z,1.33
2022-12-04T03:59:15.006Z,1.35
2022-12-04T04:01:45.708Z,1.39
2022-12-04T04:04:16.086Z,1.44
2022-12-04T04:07:05.117Z,1.48
2022-12-04T04:09:35.955Z,1.51
2022-12-04T04:12:20.857Z,1.48
2022-12-04T04:15:09.827Z,1.41
2022-12-04T04:17:59.277Z,1.35
2022-12-04T04:21:11.955Z,1.29
2022-12-04T04:24:01.543Z,1.27
2022-12-04T04:26:32.174Z,1.25
2022-12-04T04:29:00.009Z,1.19
2022-12-04T04:31:41.393Z,1.10
2022-12-04T04:34:20.741Z,1.02
2022-12-04T04:37:14.678Z,1.01
2022-12-04T04:40:14.730Z,1.04
2022-12-04T04:42:48.355Z,1.08
2022-12-04T04:45:20.291Z,1.14
2022-12-04T04:48:06.834Z,1.21
2022-12-04T04:50:35.479Z,1.24
2022-12-04T04:53:09.934Z,1.27
2022-12-04T04:55:38.550Z,1.29
2022-12-04T04:58:13.829Z,1.30
2022-12-04T05:00:45.856Z,1.29
2022-12-04T05:03:13.739Z,1.31
2022-12-04T05:05:41.567Z,1.34
2022-12-04T05:08:09.484Z,1.36
2022-12-04T05:10:37.471Z,1.40
2022-12-04T05:13:05.258Z,1.43
2022-12-04T05:15:32.973Z,1.41
2022-12-04T05:18:00.713Z,1.40
2022-12-04T05:20:28.594Z,1.37
2022-12-04T05:22:56.369Z,1.35
2022-12-04T05:25:24.135Z,1.35
2022-12-04T05:27:51.858Z,1.34
2022-12-04T05:30:19.611Z,1.34
2022-12-04T05:32:47.427Z,1.32
2022-12-04T05:35:15.346Z,1.33
2022-12-04T05:37:43.165Z,1.33
2022-12-04T05:40:11.165Z,1.32
2022-12-04T05:42:39.478Z,1.33
2022-12-04T05:45:07.749Z,1.36
2022-12-04T05:47:42.862Z,1.42
2022-12-04T05:50:12.360Z,1.44
2022-12-04T05:52:40.116Z,1.45
2022-12-04T05:55:08.056Z,1.49
2022-12-04T05:57:35.805Z,1.54
2022-12-04T06:00:04.255Z,1.57
2022-12-04T06:02:33.859Z,1.59
2022-12-04T06:05:01.855Z,1.61
2022-12-04T06:07:29.589Z,1.64
2022-12-04T06:09:57.516Z,1.68
2022-12-04T06:12:25.574Z,1.71
2022-12-04T06:14:53.233Z,1.74
2022-12-04T06:17:21.001Z,1.76
2022-12-04T06:19:48.708Z,1.77
2022-12-04T06:22:16.413Z,1.79
2022-12-04T06:24:44.159Z,1.80
2022-12-04T06:27:28.940Z,1.83
2022-12-04T06:29:56.923Z,1.86
2022-12-04T06:32:24.863Z,1.87
2022-12-04T06:34:53.596Z,1.87
2022-12-04T06:37:22.743Z,1.82
2022-12-04T06:39:50.445Z,1.77
2022-12-04T06:42:18.790Z,1.73
2022-12-04T06:44:46.699Z,1.73
2022-12-04T06:47:14.373Z,1.76
2022-12-04T06:49:42.414Z,1.80
2022-12-04T06:52:10.336Z,1.84
2022-12-04T06:54:38.238Z,1.87
2022-12-04T06:57:05.962Z,1.89
2022-12-04T06:59:34.007Z,1.89
2022-12-04T07:02:01.819Z,1.90
2022-12-04T07:04:29.656Z,1.92
2022-12-04T07:06:57.728Z,1.95
2022-12-04T07:09:25.566Z,1.98
2022-12-04T07:11:55.087Z,2.02
2022-12-04T07:14:22.944Z,2.07
2022-12-04T07:16:50.694Z,2.10
2022-12-04T07:19:18.514Z,2.12
2022-12-04T07:21:46.427Z,2.11
2022-12-04T07:24:15.671Z,2.11
2022-12-04T07:26:43.537Z,2.12
2022-12-04T07:29:11.417Z,2.16
2022-12-04T07:31:39.171Z,2.20
2022-12-04T07:34:07.540Z,2.24
2022-12-04T07:36:35.403Z,2.27
2022-12-04T07:39:03.164Z,2.31
2022-12-04T07:41:30.799Z,2.35
2022-12-04T07:43:58.463Z,2.35
2022-12-04T07:46:27.387Z,2.36
2022-12-04T07:48:56.624Z,2.38
2022-12-04T07:51:25.905Z,2.44
2022-12-04T07:53:54.427Z,2.48
2022-12-04T07:56:22.206Z,2.54
2022-12-04T07:58:50.161Z,2.60
2022-12-04T08:01:20.211Z,2.65
2022-12-04T08:03:49.230Z,2.70
2022-12-04T08:06:21.313Z,2.70
2022-12-04T08:08:49.719Z,2.69
2022-12-04T08:11:18.748Z,2.67
2022-12-04T08:13:46.485Z,2.67
2022-12-04T08:16:14.694Z,2.70
2022-12-04T08:18:46.733Z,2.77
2022-12-04T08:21:16.686Z,2.83
2022-12-04T08:23:44.458Z,2.90
2022-12-04T08:26:12.776Z,2.96
2022-12-04T08:28:41.180Z,3.02
2022-12-04T08:31:13.425Z,3.05
2022-12-04T08:33:41.823Z,3.07
2022-12-04T08:36:10.759Z,3.12
2022-12-04T08:38:38.829Z,3.17
2022-12-04T08:41:07.933Z,3.23
2022-12-04T08:43:35.643Z,3.28
2022-12-04T08:46:04.956Z,3.33
2022-12-04T08:48:33.187Z,3.40
2022-12-04T08:51:01.668Z,3.48
2022-12-04T08:53:30.443Z,3.57
2022-12-04T08:56:00.551Z,3.64
2022-12-04T08:58:28.469Z,3.70
2022-12-04T09:00:56.347Z,3.72
2022-12-04T09:03:29.319Z,3.73
2022-12-04T09:06:00.037Z,3.74
2022-12-04T09:08:27.907Z,3.75
2022-12-04T09:10:55.688Z,3.75
2022-12-04T09:13:23.378Z,3.74
2022-12-04T09:15:51.203Z,3.74
2022-12-04T09:18:19.083Z,3.73
2022-12-04T09:20:55.001Z,3.71
2022-12-04T09:23:23.022Z,3.71
2022-12-04T09:25:50.907Z,3.68
2022-12-04T09:28:18.709Z,3.65
2022-12-04T09:30:55.585Z,3.65
2022-12-04T09:33:23.331Z,3.69
2022-12-04T09:35:51.239Z,3.71
2022-12-04T09:38:19.317Z,3.73
2022-12-04T09:41:13.368Z,3.76
2022-12-04T09:43:48.220Z,3.79
2022-12-04T09:46:19.387Z,3.81
2022-12-04T09:48:48.790Z,3.84
2022-12-04T09:51:19.466Z,3.87
2022-12-04T09:53:47.168Z,3.89
2022-12-04T09:56:19.796Z,3.92
2022-12-04T09:58:50.862Z,3.95
2022-12-04T10:01:31.055Z,3.96
2022-12-04T10:04:05.675Z,3.97
2022-12-04T10:06:40.893Z,3.98
2022-12-04T10:09:08.606Z,3.97
2022-12-04T10:11:42.577Z,3.95
2022-12-04T10:14:10.309Z,3.91
2022-12-04T10:16:52.251Z,3.92
2022-12-04T10:19:29.312Z,3.87
2022-12-04T10:22:09.153Z,3.88
2022-12-04T10:24:49.549Z,3.93
2022-12-04T10:27:21.261Z,3.96
2022-12-04T10:29:50.607Z,3.98
2022-12-04T10:32:27.038Z,3.98
2022-12-04T10:34:57.173Z,3.98
2022-12-04T10:37:25.662Z,4.00
2022-12-04T10:39:56.769Z,4.04
2022-12-04T10:42:35.195Z,4.08
2022-12-04T10:45:04.098Z,4.14
2022-12-04T10:47:32.647Z,4.23
2022-12-04T10:50:05.573Z,4.33
2022-12-04T10:52:33.280Z,4.40
2022-12-04T10:55:02.250Z,4.45
2022-12-04T10:57:37.384Z,4.49
2022-12-04T11:00:23.743Z,4.50
2022-12-04T11:02:52.244Z,4.51
2022-12-04T11:05:24.990Z,4.50
2022-12-04T11:07:54.792Z,4.45
2022-12-04T11:10:25.589Z,4.42
2022-12-04T11:12:57.475Z,4.41
2022-12-04T11:15:25.699Z,4.42
2022-12-04T11:17:53.460Z,4.44
2022-12-04T11:20:26.400Z,4.48
2022-12-04T11:22:56.960Z,4.53
2022-12-04T11:25:30.688Z,4.57
2022-12-04T11:28:00.131Z,4.60
2022-12-04T11:30:35.861Z,4.60
2022-12-04T11:33:04.667Z,4.60
2022-12-04T11:35:32.729Z,4.61
2022-12-04T11:38:14.686Z,4.59
2022-12-04T11:40:50.246Z,4.57
2022-12-04T11:43:18.734Z,4.56
2022-12-04T11:45:55.841Z,4.54
2022-12-04T11:48:23.750Z,4.53
2022-12-04T11:50:51.715Z,4.53
2022-12-04T11:53:40.400Z,4.54
2022-12-04T11:56:08.400Z,4.52
2022-12-04T11:58:36.067Z,4.51
2022-12-04T12:01:03.934Z,4.49
2022-12-04T12:03:42.606Z,4.46
2022-12-04T12:06:24.729Z,4.44
2022-12-04T12:09:11.495Z,4.45
2022-12-04T12:11:42.616Z,4.46
2022-12-04T12:14:28.500Z,4.48
2022-12-04T12:17:08.319Z,4.51
2022-12-04T12:19:49.755Z,4.54
2022-12-04T12:22:17.454Z,4.53
2022-12-04T12:24:55.663Z,4.55
2022-12-04T12:27:23.592Z,4.60
2022-12-04T12:30:10.091Z,4.63
2022-12-04T12:32:43.926Z,4.67
2022-12-04T12:35:33.623Z,4.71
2022-12-04T12:38:02.779Z,4.76
2022-12-04T12:40:51.795Z,4.79
2022-12-04T12:43:22.757Z,4.82
2022-12-04T12:45:53.521Z,4.87
2022-12-04T12:48:44.505Z,4.91
2022-12-04T12:51:30.062Z,4.93
2022-12-04T12:54:04.918Z,4.95
2022-12-04T12:56:38.388Z,4.95
2022-12-04T12:59:10.706Z,4.97
2022-12-04T13:01:41.854Z,5.00
2022-12-04T13:04:28.514Z,5.03
2022-12-04T13:07:17.474Z,5.07
2022-12-04T13:09:48.343Z,5.07
2022-12-04T13:12:18.384Z,5.06
2022-12-04T13:14:49.190Z,5.06
2022-12-04T13:17:46.873Z,5.05
2022-12-04T13:20:18.826Z,5.05
2022-12-04T13:23:06.619Z,5.04
2022-12-04T13:25:37.133Z,5.04
2022-12-04T13:28:23.443Z,5.05
2022-12-04T13:30:51.209Z,5.06
2022-12-04T13:33:37.654Z,5.07
2022-12-04T13:36:14.446Z,5.07
2022-12-04T13:38:45.044Z,5.07
2022-12-04T13:41:17.333Z,5.08
2022-12-04T13:43:47.074Z,5.07
2022-12-04T13:46:24.371Z,5.05
2022-12-04T13:48:52.271Z,5.04
2022-12-04T13:51:20.035Z,5.04
2022-12-04T13:53:48.441Z,5.05
2022-12-04T13:56:27.510Z,5.07
2022-12-04T13:59:03.092Z,5.06
2022-12-04T14:01:37.845Z,5.07
2022-12-04T14:04:06.556Z,5.07
2022-12-04T14:06:37.753Z,5.06
2022-12-04T14:09:08.691Z,5.04
2022-12-04T14:11:45.551Z,4.99
2022-12-04T14:14:28.243Z,4.94
2022-12-04T14:17:00.062Z,4.90
2022-12-04T14:19:30.882Z,4.86
2022-12-04T14:21:58.937Z,4.83
2022-12-04T14:24:32.665Z,4.80
2022-12-04T14:27:11.727Z,4.77
2022-12-04T14:29:46.010Z,4.74
2022-12-04T14:32:15.671Z,4.72
2022-12-04T14:34:48.417Z,4.68
2022-12-04T14:37:27.855Z,4.64
2022-12-04T14:39:56.738Z,4.61
2022-12-04T14:42:29.684Z,4.59
2022-12-04T14:44:59.160Z,4.56
2022-12-04T14:47:36.397Z,4.53
2022-12-04T14:50:22.288Z,4.51
2022-12-04T14:52:49.941Z,4.48
2022-12-04T14:55:32.879Z,4.47
2022-12-04T14:58:21.667Z,4.43
2022-12-04T15:00:52.395Z,4.38
2022-12-04T15:03:21.449Z,4.35
2022-12-04T15:05:52.458Z,4.33
2022-12-04T15:08:21.020Z,4.31
2022-12-04T15:11:09.272Z,4.30
2022-12-04T15:13:39.550Z,4.26
2022-12-04T15:16:17.447Z,4.22
2022-12-04T15:18:58.861Z,4.18
2022-12-04T15:21:38.071Z,4.15
2022-12-04T15:24:10.008Z,4.12
2022-12-04T15:26:38.975Z,4.09
2022-12-04T15:29:08.481Z,4.08
2022-12-04T15:31:47.184Z,4.05
2022-12-04T15:34:16.586Z,4.02
2022-12-04T15:36:46.208Z,4.01
2022-12-04T15:39:17.414Z,3.99
2022-12-04T15:41:45.169Z,3.96
2022-12-04T15:44:25.312Z,3.95
2022-12-04T15:46:54.761Z,3.93
2022-12-04T15:49:27.729Z,3.88
2022-12-04T15:52:10.700Z,3.83
2022-12-04T15:54:41.861Z,3.77
2022-12-04T15:57:20.620Z,3.70
2022-12-04T15:59:49.699Z,3.63
2022-12-04T16:02:25.623Z,3.57
2022-12-04T16:04:53.563Z,3.50
2022-12-04T16:07:28.877Z,3.47
2022-12-04T16:10:03.225Z,3.42
2022-12-04T16:12:32.115Z,3.39
2022-12-04T16:14:59.904Z,3.38
2022-12-04T16:17:30.171Z,3.37
2022-12-04T16:19:58.694Z,3.34
2022-12-04T16:22:28.709Z,3.35
2022-12-04T16:24:57.825Z,3.38
2022-12-04T16:27:26.067Z,3.40
2022-12-04T16:29:53.991Z,3.41
2022-12-04T16:32:24.900Z,3.41
2022-12-04T16:34:52.694Z,3.40
2022-12-04T16:37:21.108Z,3.39
2022-12-04T16:39:49.133Z,3.38
2022-12-04T16:42:18.611Z,3.39
2022-12-04T16:44:46.763Z,3.39
2022-12-04T16:47:15.278Z,3.40
2022-12-04T16:49:43.829Z,3.42
2022-12-04T16:52:12.109Z,3.44
2022-12-04T16:54:39.904Z,3.49
2022-12-04T16:57:08.947Z,3.55
2022-12-04T16:59:36.828Z,3.60
2022-12-04T17:02:06.899Z,3.64
2022-12-04T17:04:34.806Z,3.68
2022-12-04T17:07:03.138Z,3.70
2022-12-04T17:09:30.847Z,3.70
2022-12-04T17:11:58.790Z,3.71
2022-12-04T17:14:27.826Z,3.71
2022-12-04T17:16:56.499Z,3.69
2022-12-04T17:19:24.384Z,3.67
2022-12-04T17:21:52.170Z,3.66
2022-12-04T17:24:19.897Z,3.64
2022-12-04T17:26:47.598Z,3.61
2022-12-04T17:29:15.408Z,3.57
2022-12-04T17:31:43.189Z,3.54
2022-12-04T17:34:10.917Z,3.51
2022-12-04T17:36:38.764Z,3.49
2022-12-04T17:39:08.234Z,3.48
2022-12-04T17:41:37.188Z,3.51
2022-12-04T17:44:04.926Z,3.53
2022-12-04T17:46:32.700Z,3.57
2022-12-04T17:49:05.287Z,3.59
2022-12-04T17:51:36.127Z,3.64
2022-12-04T17:54:04.709Z,3.67
2022-12-04T17:56:34.881Z,3.70
2022-12-04T17:59:02.689Z,3.72
2022-12-04T18:01:31.265Z,3.74
2022-12-04T18:04:03.407Z,3.73
2022-12-04T18:06:32.895Z,3.72
2022-12-04T18:09:08.740Z,3.71
2022-12-04T18:11:37.374Z,3.69
2022-12-04T18:14:11.672Z,3.66
2022-12-04T18:16:48.216Z,3.63
2022-12-04T18:19:15.987Z,3.60
2022-12-04T18:21:43.663Z,3.57
2022-12-04T18:24:11.392Z,3.55
2022-12-04T18:26:40.551Z,3.55
2022-12-04T18:29:09.541Z,3.54
2022-12-04T18:31:40.846Z,3.55
2022-12-04T18:34:08.967Z,3.57
2022-12-04T18:36:38.839Z,3.58
2022-12-04T18:39:13.573Z,3.58
2022-12-04T18:41:41.941Z,3.56
2022-12-04T18:44:10.537Z,3.57
2022-12-04T18:46:38.780Z,3.56
2022-12-04T18:49:09.127Z,3.55
2022-12-04T18:51:39.607Z,3.53
2022-12-04T18:54:09.799Z,3.48
2022-12-04T18:56:37.563Z,3.42
2022-12-04T18:59:07.075Z,3.38
2022-12-04T19:01:37.357Z,3.38
2022-12-04T19:04:05.986Z,3.37
2022-12-04T19:06:35.650Z,3.37
2022-12-04T19:09:05.232Z,3.34
2022-12-04T19:11:33.144Z,3.32
2022-12-04T19:14:03.477Z,3.29
2022-12-04T19:16:33.228Z,3.27
2022-12-04T19:19:01.317Z,3.25
2022-12-04T19:21:29.113Z,3.25
2022-12-04T19:23:59.723Z,3.27
2022-12-04T19:26:28.410Z,3.27
2022-12-04T19:28:56.952Z,3.27
2022-12-04T19:31:27.535Z,3.28
2022-12-04T19:33:57.724Z,3.26
2022-12-04T19:36:27.203Z,3.22
2022-12-04T19:38:56.681Z,3.19
2022-12-04T19:41:26.065Z,3.17
2022-12-04T19:43:58.616Z,3.16
2022-12-04T19:46:28.128Z,3.14
2022-12-04T19:48:58.484Z,3.11
2022-12-04T19:51:27.402Z,3.07
2022-12-04T19:53:55.519Z,3.04
2022-12-04T19:56:24.755Z,3.01
2022-12-04T19:58:53.322Z,2.97
2022-12-04T20:01:24.887Z,2.93
2022-12-04T20:03:53.322Z,2.88
2022-12-04T20:06:22.640Z,2.83
2022-12-04T20:08:57.965Z,2.81
2022-12-04T20:11:26.496Z,2.79
2022-12-04T20:13:55.761Z,2.79
2022-12-04T20:16:24.982Z,2.78
2022-12-04T20:18:53.289Z,2.76
2022-12-04T20:21:23.208Z,2.73
2022-12-04T20:23:51.348Z,2.72
2022-12-04T20:26:20.530Z,2.70
2022-12-04T20:28:48.349Z,2.67
2022-12-04T20:31:16.143Z,2.61
2022-12-04T20:33:44.969Z,2.58
2022-12-04T20:36:13.412Z,2.56
2022-12-04T20:38:41.706Z,2.55
2022-12-04T20:41:10.625Z,2.54
2022-12-04T20:43:38.346Z,2.52
2022-12-04T20:46:23.292Z,2.51
2022-12-04T20:48:53.295Z,2.51
2022-12-04T20:51:25.649Z,2.51
2022-12-04T20:53:55.408Z,2.49
2022-12-04T20:56:23.427Z,2.47
2022-12-04T20:58:53.535Z,2.45
2022-12-04T21:01:21.705Z,2.43
2022-12-04T21:03:49.588Z,2.39
2022-12-04T21:06:20.059Z,2.35
2022-12-04T21:08:54.846Z,2.31
2022-12-04T21:11:28.598Z,2.27
2022-12-04T21:14:16.006Z,2.22
2022-12-04T21:16:47.533Z,2.20
2022-12-04T21:19:17.027Z,2.19
2022-12-04T21:21:45.016Z,2.18
2022-12-04T21:24:14.230Z,2.19
2022-12-04T21:26:42.615Z,2.21
2022-12-04T21:29:10.857Z,2.23
2022-12-04T21:31:39.230Z,2.22
2022-12-04T21:34:07.944Z,2.19
2022-12-04T21:36:35.788Z,2.17
2022-12-04T21:39:04.458Z,2.16
2022-12-04T21:41:50.641Z,2.15
2022-12-04T21:44:19.960Z,2.16
2022-12-04T21:46:48.611Z,2.16
2022-12-04T21:49:17.404Z,2.17
2022-12-04T21:52:00.533Z,2.17
2022-12-04T21:54:28.949Z,2.15
2022-12-04T21:56:57.117Z,2.15
2022-12-04T21:59:25.416Z,2.13
2022-12-04T22:01:53.696Z,2.11
2022-12-04T22:04:21.930Z,2.08
2022-12-04T22:06:49.783Z,2.08
2022-12-04T22:09:17.739Z,2.10
2022-12-04T22:11:45.705Z,2.10
2022-12-04T22:14:14.151Z,2.11
2022-12-04T22:16:43.238Z,2.10
2022-12-04T22:19:12.468Z,2.06
2022-12-04T22:21:40.321Z,2.01
2022-12-04T22:24:08.535Z,1.95
2022-12-04T22:26:36.383Z,1.91
2022-12-04T22:29:20.775Z,1.88
2022-12-04T22:31:52.578Z,1.85
2022-12-04T22:34:20.423Z,1.85
2022-12-04T22:36:48.915Z,1.85
2022-12-04T22:39:16.712Z,1.83
2022-12-04T22:41:44.517Z,1.79
2022-12-04T22:44:12.255Z,1.77
2022-12-04T22:46:40.112Z,1.74
2022-12-04T22:49:07.927Z,1.72
2022-12-04T22:51:35.719Z,1.70
2022-12-04T22:54:05.421Z,1.68
2022-12-04T22:56:35.443Z,1.67
2022-12-04T22:59:03.208Z,1.66
2022-12-04T23:01:32.264Z,1.66
2022-12-04T23:04:02.293Z,1.66
2022-12-04T23:06:31.962Z,1.62
2022-12-04T23:09:04.676Z,1.58
2022-12-04T23:11:32.498Z,1.53
2022-12-04T23:14:01.632Z,1.50
2022-12-04T23:16:30.674Z,1.48
2022-12-04T23:18:59.129Z,1.45
2022-12-04T23:21:29.046Z,1.42
2022-12-04T23:23:57.524Z,1.39
2022-12-04T23:26:29.508Z,1.36
2022-12-04T23:28:57.776Z,1.38
2022-12-04T23:31:25.816Z,1.40
2022-12-04T23:33:53.540Z,1.43
2022-12-04T23:36:21.579Z,1.44
2022-12-04T23:38:49.331Z,1.44
2022-12-04T23:41:19.661Z,1.46
2022-12-04T23:43:48.076Z,1.45
2022-12-04T23:46:17.691Z,1.41
2022-12-04T23:48:45.736Z,1.40
2022-12-04T23:51:15.016Z,1.38
2022-12-04T23:53:43.354Z,1.38
2022-12-04T23:56:12.847Z,1.38
2022-12-04T23:58:41.422Z,1.40
